Quinton, New Jersey
Current Conditions -  °F | °C
As of 6:51 PM on Wednesday 22 Oct 2014 (Local Time) from KILG Reporting Station
Overcast Overcast  
Wind Chill: 55°   Ceiling: 3600
Heat Index: 55°   Visibility: 10mi
Dew Point: 50°   Wind: 16mph
Humidity: 83%   Direction: 330°NNW
Pressure: 29.87"   Gusts: 22mph
Location:  39.55°N, 75.41°W
Report Text: KILG 222251Z 33014G19KT 10SM OVC036 13/10 A2987 RMK AO2 RAB19E49 SLP113 P0000 T01280100
Loading
Personal Weather Stations






























Interactive Weather Map
Tropical Storm Tracking
New forecast layout! Learn more

10-Day Weather Forecast

Advertisements
Track Severe Weather on mobile